createdAt,value
2023-02-09T00:02:48.795Z,0.77
2023-02-09T00:07:50.982Z,0.90
2023-02-09T00:13:11.021Z,0.77
2023-02-09T00:18:12.854Z,0.88
2023-02-09T00:23:14.879Z,0.50
2023-02-09T00:28:17.103Z,0.85
2023-02-09T00:33:19.275Z,0.82
2023-02-09T00:38:21.291Z,0.70
2023-02-09T00:43:23.167Z,0.93
2023-02-09T00:48:25.344Z,0.85
2023-02-09T00:53:27.759Z,0.75
2023-02-09T00:58:29.739Z,0.63
2023-02-09T01:03:31.789Z,0.73
2023-02-09T01:08:33.814Z,0.82
2023-02-09T01:13:35.822Z,0.80
2023-02-09T01:18:38.253Z,0.95
2023-02-09T01:23:40.404Z,0.70
2023-02-09T01:28:42.960Z,0.70
2023-02-09T01:33:44.687Z,1.42
2023-02-09T01:38:46.550Z,0.70
2023-02-09T01:43:55.827Z,1.00
2023-02-09T01:49:21.778Z,0.70
2023-02-09T01:54:45.594Z,0.90
2023-02-09T01:59:54.129Z,0.88
2023-02-09T02:04:56.285Z,1.33
2023-02-09T02:09:58.918Z,0.93
2023-02-09T02:15:00.845Z,0.95
2023-02-09T02:20:35.576Z,0.70
2023-02-09T02:26:06.171Z,0.95
2023-02-09T02:31:33.036Z,1.20
2023-02-09T02:36:43.711Z,0.73
2023-02-09T02:42:13.547Z,0.98
2023-02-09T02:47:20.290Z,0.70
2023-02-09T02:52:22.149Z,1.20
2023-02-09T02:57:29.004Z,0.80
2023-02-09T03:02:35.573Z,0.75
2023-02-09T03:07:37.811Z,0.70
2023-02-09T03:12:55.317Z,0.73
2023-02-09T03:18:21.784Z,1.02
2023-02-09T03:23:33.286Z,0.75
2023-02-09T03:28:38.762Z,1.20
2023-02-09T03:33:41.482Z,0.60
2023-02-09T03:38:43.462Z,0.68
2023-02-09T03:44:03.938Z,0.95
2023-02-09T03:49:05.988Z,0.68
2023-02-09T03:54:08.182Z,0.90
2023-02-09T03:59:10.135Z,1.20
2023-02-09T04:04:11.963Z,0.80
2023-02-09T04:09:14.736Z,1.00
2023-02-09T04:14:16.902Z,1.33
2023-02-09T04:19:18.829Z,0.73
2023-02-09T04:24:22.065Z,0.50
2023-02-09T04:29:24.462Z,1.02
2023-02-09T04:34:26.479Z,0.88
2023-02-09T04:39:28.312Z,0.90
2023-02-09T04:44:30.267Z,1.05
2023-02-09T04:49:32.227Z,0.93
2023-02-09T04:54:34.278Z,1.10
2023-02-09T04:59:39.392Z,0.70
2023-02-09T05:04:41.241Z,0.75
2023-02-09T05:09:43.423Z,1.10
2023-02-09T05:14:45.196Z,0.68
2023-02-09T05:19:50.138Z,0.77
2023-02-09T05:24:52.075Z,1.10
2023-02-09T05:29:53.941Z,0.88
2023-02-09T05:34:55.994Z,1.00
2023-02-09T05:39:58.099Z,0.88
2023-02-09T05:45:00.100Z,0.80
2023-02-09T05:50:02.336Z,0.80
2023-02-09T05:55:04.534Z,1.30
2023-02-09T06:00:07.043Z,0.88
2023-02-09T06:05:09.056Z,0.73
2023-02-09T06:10:11.159Z,1.00
2023-02-09T06:15:13.255Z,0.85
2023-02-09T06:20:15.090Z,1.05
2023-02-09T06:25:17.327Z,1.02
2023-02-09T06:30:19.380Z,0.90
2023-02-09T06:35:21.497Z,1.10
2023-02-09T06:40:23.360Z,1.15
2023-02-09T06:45:25.383Z,0.93
2023-02-09T06:50:27.656Z,1.20
2023-02-09T06:55:29.557Z,1.10
2023-02-09T07:00:32.152Z,1.13
2023-02-09T07:05:34.364Z,0.90
2023-02-09T07:10:36.207Z,0.95
2023-02-09T07:15:38.285Z,0.95
2023-02-09T07:20:40.162Z,1.13
2023-02-09T07:25:42.168Z,1.17
2023-02-09T07:30:44.454Z,0.90
2023-02-09T07:35:47.589Z,0.90
2023-02-09T07:40:49.395Z,1.13
2023-02-09T07:45:51.073Z,1.35
2023-02-09T07:50:53.638Z,1.23
2023-02-09T07:55:55.531Z,1.50
2023-02-09T08:01:04.618Z,1.52
2023-02-09T08:06:41.322Z,1.00
2023-02-09T08:12:02.040Z,1.45
2023-02-09T08:17:28.517Z,1.75
2023-02-09T08:22:34.008Z,2.17
2023-02-09T08:27:39.412Z,2.42
2023-02-09T08:32:41.496Z,2.53
2023-02-09T08:37:43.482Z,2.55
2023-02-09T08:42:45.790Z,2.70
2023-02-09T08:47:47.688Z,2.42
2023-02-09T08:52:49.553Z,2.45
2023-02-09T08:57:51.478Z,2.83
2023-02-09T09:02:53.384Z,2.03
2023-02-09T09:07:55.262Z,2.30
2023-02-09T09:12:57.809Z,2.50
2023-02-09T09:18:00.061Z,1.92
2023-02-09T09:23:02.394Z,2.30
2023-02-09T09:28:04.568Z,2.38
2023-02-09T09:33:06.771Z,3.08
2023-02-09T09:38:08.682Z,2.10
2023-02-09T09:43:27.667Z,2.65
2023-02-09T09:48:43.144Z,2.72
2023-02-09T09:53:49.005Z,2.05
2023-02-09T09:58:52.116Z,2.17
2023-02-09T10:04:14.487Z,2.05
2023-02-09T10:09:30.114Z,2.10
2023-02-09T10:14:32.108Z,1.98
2023-02-09T10:19:35.311Z,2.50
2023-02-09T10:24:40.418Z,1.98
2023-02-09T10:29:42.449Z,1.30
2023-02-09T10:34:53.211Z,1.90
2023-02-09T10:40:14.277Z,1.65
2023-02-09T10:45:40.966Z,1.90
2023-02-09T10:51:07.462Z,1.60
2023-02-09T10:56:15.699Z,2.13
2023-02-09T11:01:23.634Z,1.83
2023-02-09T11:06:25.968Z,1.50
2023-02-09T11:11:32.976Z,1.83
2023-02-09T11:16:54.618Z,1.50
2023-02-09T11:22:06.886Z,1.73
2023-02-09T11:27:17.546Z,1.52
2023-02-09T11:32:51.075Z,2.03
2023-02-09T11:38:22.267Z,1.50
2023-02-09T11:43:36.243Z,1.27
2023-02-09T11:48:44.821Z,1.98
2023-02-09T11:53:54.173Z,1.60
2023-02-09T11:59:22.056Z,1.67
2023-02-09T12:04:47.662Z,1.73
2023-02-09T12:10:08.363Z,1.30
2023-02-09T12:15:19.615Z,1.42
2023-02-09T12:20:24.847Z,1.38
2023-02-09T12:25:48.691Z,1.23
2023-02-09T12:30:52.258Z,1.40
2023-02-09T12:36:25.826Z,1.98
2023-02-09T12:41:43.116Z,1.15
2023-02-09T12:46:45.163Z,1.23
2023-02-09T12:51:56.349Z,1.00
2023-02-09T12:57:21.153Z,1.20
2023-02-09T13:02:50.197Z,1.30
2023-02-09T13:08:16.032Z,1.50
2023-02-09T13:13:26.082Z,1.48
2023-02-09T13:18:33.554Z,1.33
2023-02-09T13:23:59.489Z,1.38
2023-02-09T13:29:19.811Z,1.20
2023-02-09T13:34:52.950Z,1.50
2023-02-09T13:39:57.951Z,1.27
2023-02-09T13:44:59.873Z,1.20
2023-02-09T13:50:11.447Z,1.00
2023-02-09T13:55:13.396Z,0.93
2023-02-09T14:00:15.613Z,1.17
2023-02-09T14:05:43.513Z,1.42
2023-02-09T14:10:52.832Z,1.45
2023-02-09T14:16:08.348Z,1.73
2023-02-09T14:21:15.997Z,1.65
2023-02-09T14:26:23.088Z,1.38
2023-02-09T14:31:26.468Z,1.27
2023-02-09T14:36:34.118Z,1.17
2023-02-09T14:41:36.880Z,1.27
2023-02-09T14:46:49.890Z,1.42
2023-02-09T14:52:02.219Z,1.30
2023-02-09T14:57:04.675Z,1.40
2023-02-09T15:02:19.674Z,1.60
2023-02-09T15:07:28.724Z,1.17
2023-02-09T15:12:30.747Z,1.55
2023-02-09T15:17:32.904Z,1.45
2023-02-09T15:22:34.753Z,1.40
2023-02-09T15:27:42.409Z,1.42
2023-02-09T15:32:44.888Z,1.77
2023-02-09T15:37:49.868Z,1.88
2023-02-09T15:43:10.399Z,1.50
2023-02-09T15:48:12.573Z,1.73
2023-02-09T15:53:18.985Z,2.03
2023-02-09T15:58:35.356Z,1.92
2023-02-09T16:03:37.644Z,2.33
2023-02-09T16:08:39.618Z,1.40
2023-02-09T16:13:41.605Z,2.05
2023-02-09T16:18:44.209Z,2.10
2023-02-09T16:23:47.813Z,1.88
2023-02-09T16:28:52.103Z,1.92
2023-02-09T16:33:53.953Z,1.25
2023-02-09T16:38:55.814Z,1.98
2023-02-09T16:43:58.186Z,1.70
2023-02-09T16:49:01.739Z,1.70
2023-02-09T16:54:05.215Z,2.05
2023-02-09T16:59:10.198Z,1.38
2023-02-09T17:04:14.028Z,1.40
2023-02-09T17:09:16.499Z,1.70
2023-02-09T17:14:18.345Z,1.73
2023-02-09T17:19:20.302Z,1.55
2023-02-09T17:24:22.503Z,2.03
2023-02-09T17:29:24.427Z,2.47
2023-02-09T17:34:28.562Z,1.92
2023-02-09T17:39:30.969Z,1.40
2023-02-09T17:44:45.597Z,1.38
2023-02-09T17:49:48.534Z,2.08
2023-02-09T17:54:51.111Z,1.60
2023-02-09T17:59:53.362Z,1.63
2023-02-09T18:04:55.186Z,1.35
2023-02-09T18:09:56.989Z,1.52
2023-02-09T18:14:59.604Z,2.10
2023-02-09T18:20:01.624Z,1.83
2023-02-09T18:25:03.771Z,1.42
2023-02-09T18:30:06.464Z,1.90
2023-02-09T18:35:08.473Z,1.80
2023-02-09T18:40:11.148Z,1.55
2023-02-09T18:45:18.914Z,1.55
2023-02-09T18:50:24.442Z,1.58
2023-02-09T18:55:31.206Z,1.80
2023-02-09T19:00:34.117Z,1.92
2023-02-09T19:05:36.039Z,1.52
2023-02-09T19:10:38.064Z,2.00
2023-02-09T19:15:40.589Z,1.45
2023-02-09T19:20:42.465Z,1.55
2023-02-09T19:25:44.948Z,1.50
2023-02-09T19:30:47.138Z,1.90
2023-02-09T19:35:56.965Z,1.85
2023-02-09T19:41:10.432Z,1.92
2023-02-09T19:46:13.370Z,2.42
2023-02-09T19:51:15.657Z,2.33
2023-02-09T19:56:20.863Z,2.20
2023-02-09T20:01:23.179Z,1.75
2023-02-09T20:06:25.404Z,1.90
2023-02-09T20:11:27.864Z,1.98
2023-02-09T20:16:29.937Z,1.88
2023-02-09T20:21:31.971Z,1.95
2023-02-09T20:26:34.251Z,1.80
2023-02-09T20:31:38.156Z,1.70
2023-02-09T20:36:41.627Z,1.92
2023-02-09T20:42:06.759Z,1.60
2023-02-09T20:47:08.780Z,1.85
2023-02-09T20:52:10.890Z,2.33
2023-02-09T20:57:12.832Z,1.83
2023-02-09T21:02:16.291Z,1.77
2023-02-09T21:07:20.314Z,1.52
2023-02-09T21:12:22.654Z,1.90
2023-02-09T21:17:24.666Z,1.90
2023-02-09T21:22:26.757Z,1.77
2023-02-09T21:27:29.124Z,2.00
2023-02-09T21:32:35.059Z,1.80
2023-02-09T21:37:43.128Z,2.10
2023-02-09T21:42:45.197Z,2.75
2023-02-09T21:47:47.053Z,1.90
2023-02-09T21:52:49.993Z,2.33
2023-02-09T21:57:51.959Z,2.00
2023-02-09T22:02:54.606Z,2.10
2023-02-09T22:07:56.342Z,2.25
2023-02-09T22:12:58.071Z,3.20
2023-02-09T22:18:00.225Z,1.95
2023-02-09T22:23:02.324Z,2.38
2023-02-09T22:28:05.790Z,2.60
2023-02-09T22:33:07.677Z,1.70
2023-02-09T22:38:09.556Z,1.75
2023-02-09T22:43:11.457Z,2.42
2023-02-09T22:48:13.471Z,2.38
2023-02-09T22:53:15.427Z,2.03
2023-02-09T22:58:17.379Z,2.30
2023-02-09T23:03:19.570Z,2.05
2023-02-09T23:08:23.091Z,2.47
2023-02-09T23:13:25.160Z,2.13
2023-02-09T23:18:27.061Z,2.65
2023-02-09T23:23:29.583Z,2.05
2023-02-09T23:28:31.765Z,1.95
2023-02-09T23:33:35.753Z,2.00
2023-02-09T23:38:37.991Z,2.05
2023-02-09T23:43:40.597Z,2.47
2023-02-09T23:48:44.753Z,2.40
2023-02-09T23:53:47.949Z,1.95
2023-02-09T23:58:51.742Z,2.00
